Time;durP1;ratioP1;P1;durP2;ratioP2;P2;SDS_P1;SDS_P2;PMS_P1;PMS_P2;Temp;Humidity;BMP_temperature;BMP_pressure;BME280_temperature;BME280_humidity;BME280_pressure;Samples;Min_cycle;Max_cycle;Signal;HPM_P1;HPM_P2
2022/11/06 11:51:38;;;;;;;12.75;3.50;;;;;;;20.43;55.34;100505.72;4980053;27;3629638;-59
2022/11/06 11:54:33;;;;;;;11.20;2.35;;;;;;;21.71;51.78;100501.97;5084058;28;20044;-59
2022/11/06 11:57:03;;;;;;;10.32;2.58;;;;;;;22.53;49.34;100497.84;5086720;28;20107;-57
2022/11/06 11:59:37;;;;;;;8.32;2.33;;;;;;;23.01;47.46;100500.97;5101774;28;20149;-52
2022/11/06 12:02:22;;;;;;;9.40;2.10;;;;;;;23.36;47.05;100500.44;5080148;28;20404;-60
2022/11/06 12:04:54;;;;;;;14.32;2.25;;;;;;;23.64;45.79;100518.97;5089830;28;20016;-61
2022/11/06 12:07:32;;;;;;;9.00;2.15;;;;;;;23.82;45.31;100493.78;5071617;28;20024;-62
2022/11/06 12:10:02;;;;;;;9.93;2.72;;;;;;;23.92;45.16;100497.34;5089013;28;20029;-60
2022/11/06 12:12:33;;;;;;;12.85;2.85;;;;;;;24.08;44.94;100498.31;5088132;28;20115;-60
2022/11/06 12:15:39;;;;;;;11.40;2.22;;;;;;;24.09;45.01;100503.56;5089642;28;20028;-60
2022/11/06 12:18:13;;;;;;;9.68;2.40;;;;;;;24.12;44.87;100495.75;5087707;28;20515;-62
2022/11/06 12:21:20;;;;;;;12.73;2.72;;;;;;;24.16;44.34;100498.38;5087713;28;20063;-61
2022/11/06 12:24:10;;;;;;;10.82;3.13;;;;;;;24.06;44.80;100476.50;5087857;28;20053;-62
2022/11/06 12:26:59;;;;;;;11.73;2.95;;;;;;;24.20;44.33;100492.25;5062442;28;20508;-58
2022/11/06 12:29:31;;;;;;;11.63;2.65;;;;;;;24.31;44.13;100501.06;5087388;28;20452;-58
2022/11/06 12:32:19;;;;;;;11.48;3.58;;;;;;;24.34;44.37;100502.81;5087841;28;20089;-61
2022/11/06 12:34:49;;;;;;;10.93;3.60;;;;;;;24.28;44.13;100501.03;5085286;28;20040;-61
2022/11/06 12:37:25;;;;;;;10.55;3.20;;;;;;;24.25;44.50;100503.66;5087694;28;20028;-58
2022/11/06 12:40:00;;;;;;;14.68;4.38;;;;;;;24.24;44.38;100502.75;5087063;28;20082;-59
2022/11/06 12:42:31;;;;;;;12.88;3.30;;;;;;;24.26;44.26;100516.75;5087010;28;20030;-61
2022/11/06 12:44:59;;;;;;;11.85;2.88;;;;;;;24.37;43.79;100506.31;5087649;28;20036;-61
2022/11/06 12:47:35;;;;;;;11.50;3.08;;;;;;;24.34;44.21;100511.53;5088969;28;20047;-61
2022/11/06 12:50:08;;;;;;;13.63;3.08;;;;;;;24.29;44.20;100513.28;5087846;28;20507;-62
2022/11/06 12:52:55;;;;;;;14.07;3.05;;;;;;;24.33;43.81;100511.53;5087601;28;20441;-60
2022/11/06 12:55:54;;;;;;;12.85;3.33;;;;;;;24.32;43.57;100515.03;5087826;28;20139;-56
2022/11/06 12:58:49;;;;;;;12.57;2.63;;;;;;;24.22;43.45;100501.00;5088654;28;20020;-61
2022/11/06 13:01:42;;;;;;;15.15;4.88;;;;;;;24.27;43.56;100502.78;5082212;28;20028;-60
2022/11/06 13:04:30;;;;;;;12.95;3.35;;;;;;;24.35;43.39;100515.91;5074520;28;20032;-58
2022/11/06 13:07:26;;;;;;;12.13;2.78;;;;;;;24.31;43.77;100505.41;5075056;28;20029;-61
2022/11/06 13:10:14;;;;;;;11.48;3.80;;;;;;;24.25;43.89;100499.25;5069967;28;20365;-61
2022/11/06 13:13:00;;;;;;;12.95;3.25;;;;;;;24.34;43.54;100497.56;5057451;28;20089;-61
2022/11/06 13:16:01;;;;;;;11.15;3.75;;;;;;;24.31;43.52;100494.94;5067340;28;20124;-61
2022/11/06 13:18:32;;;;;;;16.33;3.88;;;;;;;24.33;43.56;100491.44;5070931;28;20036;-60
2022/11/06 13:21:06;;;;;;;17.92;3.75;;;;;;;24.26;43.31;100494.91;5074376;28;20112;-60
2022/11/06 13:23:55;;;;;;;19.83;4.32;;;;;;;24.21;43.87;100492.28;5073441;28;20382;-61
2022/11/06 13:26:43;;;;;;;12.30;3.13;;;;;;;24.24;43.67;100501.91;5073457;28;20021;-61
2022/11/06 13:29:12;;;;;;;13.63;3.28;;;;;;;24.34;43.27;100500.19;5066874;28;20064;-60
2022/11/06 13:31:47;;;;;;;14.85;3.55;;;;;;;24.30;43.31;100501.03;5074563;28;20048;-60
2022/11/06 13:34:21;;;;;;;17.70;3.95;;;;;;;24.36;43.47;100507.19;5074500;28;20033;-60
2022/11/06 13:36:50;;;;;;;11.90;3.77;;;;;;;24.32;43.39;100497.56;5073020;28;20093;-61
2022/11/06 13:39:41;;;;;;;11.85;3.17;;;;;;;24.18;43.41;100492.25;5072478;28;20067;-61
2022/11/06 13:42:21;;;;;;;13.25;3.65;;;;;;;24.31;43.58;100502.78;5064575;28;20037;-59
2022/11/06 13:44:49;;;;;;;15.70;4.05;;;;;;;24.32;43.99;100510.69;5072923;28;20390;-60
2022/11/06 13:47:23;;;;;;;11.88;3.70;;;;;;;24.31;44.11;100526.38;5074465;28;20427;-59
2022/11/06 13:50:05;;;;;;;10.40;3.10;;;;;;;24.33;44.14;100506.31;5073305;28;20061;-61
2022/11/06 13:53:03;;;;;;;13.27;4.20;;;;;;;24.23;43.63;100506.28;5074041;28;20028;-59
2022/11/06 13:55:33;;;;;;;14.73;3.05;;;;;;;24.39;43.83;100524.69;5067484;28;20512;-61
2022/11/06 13:58:21;;;;;;;15.40;3.83;;;;;;;24.37;43.57;100524.66;5073999;28;20028;-58
2022/11/06 14:01:27;;;;;;;15.00;4.03;;;;;;;24.37;43.48;100536.91;5020765;28;20029;-61
2022/11/06 14:04:23;;;;;;;13.32;3.42;;;;;;;24.45;43.36;100529.06;5049383;28;20134;-60
2022/11/06 14:06:54;;;;;;;13.52;3.08;;;;;;;24.43;43.62;100529.94;5050635;28;20803;-61
2022/11/06 14:09:25;;;;;;;11.38;3.50;;;;;;;24.41;43.57;100528.16;5073499;28;20052;-61
2022/11/06 14:11:55;;;;;;;12.73;3.05;;;;;;;24.39;43.92;100540.44;5093999;28;20073;-61
2022/11/06 14:14:24;;;;;;;11.88;2.97;;;;;;;24.35;43.80;100523.78;5093367;28;20433;-60
2022/11/06 14:17:12;;;;;;;15.35;3.75;;;;;;;24.32;43.93;100541.25;5093763;28;20024;-61
2022/11/06 14:19:42;;;;;;;11.88;3.38;;;;;;;24.36;43.81;100533.41;5087225;28;20397;-60
2022/11/06 14:22:29;;;;;;;13.55;4.00;;;;;;;24.35;43.61;100526.41;5091904;28;20487;-60
2022/11/06 14:24:57;;;;;;;13.55;3.53;;;;;;;24.40;43.63;100523.81;5070179;28;20162;-61
2022/11/06 14:27:27;;;;;;;17.42;4.10;;;;;;;24.42;43.59;100543.03;5072284;28;20465;-60
2022/11/06 14:30:16;;;;;;;14.40;3.50;;;;;;;24.45;43.45;100536.94;5073567;28;20052;-61
2022/11/06 14:32:46;;;;;;;15.88;4.10;;;;;;;24.45;43.09;100536.94;5073416;28;20028;-61
2022/11/06 14:35:34;;;;;;;21.38;4.53;;;;;;;24.39;43.33;100530.78;5073380;28;20149;-61
2022/11/06 14:38:31;;;;;;;14.68;3.70;;;;;;;24.45;43.21;100542.19;5073326;28;20393;-60
2022/11/06 14:41:02;;;;;;;10.88;3.53;;;;;;;24.51;42.94;100536.94;5065859;28;20050;-61
2022/11/06 14:43:32;;;;;;;16.30;4.07;;;;;;;24.49;43.08;100528.22;5071864;28;20444;-60
2022/11/06 14:46:04;;;;;;;14.45;3.78;;;;;;;24.52;42.95;100533.47;5072668;28;20474;-60
2022/11/06 14:48:37;;;;;;;11.25;2.95;;;;;;;24.52;42.54;100552.72;5073413;28;20028;-60
2022/11/06 14:51:08;;;;;;;11.07;3.17;;;;;;;24.47;43.33;100551.81;5071139;28;20563;-60
2022/11/06 14:53:49;;;;;;;14.30;3.88;;;;;;;24.42;43.00;100553.53;5072965;28;20052;-60
2022/11/06 14:56:38;;;;;;;10.40;3.35;;;;;;;24.43;42.89;100563.13;5073245;28;20107;-60
2022/11/06 14:59:14;;;;;;;11.40;3.08;;;;;;;24.47;42.79;100557.03;5073153;28;20027;-60
2022/11/06 15:01:56;;;;;;;12.50;3.28;;;;;;;24.41;42.87;100563.16;5073096;28;20024;-58
2022/11/06 15:04:25;;;;;;;13.10;2.95;;;;;;;24.47;42.79;100569.28;5073025;28;20024;-57
2022/11/06 15:06:54;;;;;;;11.63;2.42;;;;;;;24.47;43.06;100561.44;5071650;28;20020;-60
2022/11/06 15:09:27;;;;;;;13.32;3.78;;;;;;;24.48;42.96;100571.91;5071370;28;20028;-60
2022/11/06 15:12:01;;;;;;;10.95;2.88;;;;;;;24.42;43.19;100570.16;5072939;28;20059;-60
2022/11/06 15:14:29;;;;;;;9.65;2.70;;;;;;;24.41;43.05;100567.50;5071755;28;20416;-60
2022/11/06 15:17:05;;;;;;;11.95;2.88;;;;;;;24.31;43.30;100574.47;5072966;28;20017;-60
2022/11/06 15:19:34;;;;;;;13.13;3.35;;;;;;;24.41;42.94;100584.13;5072265;28;20024;-60
2022/11/06 15:22:05;;;;;;;10.65;2.45;;;;;;;24.47;43.01;100575.41;5072831;28;20039;-59
2022/11/06 15:24:38;;;;;;;10.27;2.85;;;;;;;24.46;42.75;100585.91;5072086;28;20013;-58
2022/11/06 15:27:17;;;;;;;10.50;2.78;;;;;;;24.40;43.22;100582.38;5072684;28;20031;-60
2022/11/06 15:29:48;;;;;;;9.60;2.55;;;;;;;24.43;42.79;100587.63;5071579;28;20078;-59
2022/11/06 15:32:21;;;;;;;7.18;2.65;;;;;;;24.47;42.72;100588.50;5071432;28;20059;-60
2022/11/06 15:35:03;;;;;;;8.85;2.65;;;;;;;24.48;42.93;100594.66;5072439;28;20023;-59
2022/11/06 15:37:42;;;;;;;10.88;2.47;;;;;;;24.51;42.61;100602.50;5072627;28;20028;-59
2022/11/06 15:40:31;;;;;;;11.13;2.75;;;;;;;24.54;42.73;100592.94;5071396;28;20012;-60
2022/11/06 15:43:25;;;;;;;9.68;2.13;;;;;;;24.57;42.50;100602.53;5072518;28;20028;-58
2022/11/06 15:46:04;;;;;;;14.40;3.13;;;;;;;24.55;42.66;100601.66;5072254;28;20067;-59
2022/11/06 15:48:33;;;;;;;13.52;3.53;;;;;;;24.68;42.39;100597.34;5072573;28;20428;-59
2022/11/06 15:51:02;;;;;;;8.80;2.60;;;;;;;24.50;42.23;100574.53;5070641;28;20517;-58
2022/11/06 15:53:32;;;;;;;12.25;3.05;;;;;;;24.66;42.16;100607.81;5071421;28;20040;-59
2022/11/06 15:56:07;;;;;;;10.75;2.50;;;;;;;24.62;42.18;100599.94;5072307;28;20024;-60
2022/11/06 15:58:37;;;;;;;10.20;2.63;;;;;;;24.67;42.00;100608.72;5072692;28;20021;-60
2022/11/06 16:01:07;;;;;;;12.35;3.05;;;;;;;24.69;42.14;100609.59;5072340;28;20040;-60
2022/11/06 16:03:47;;;;;;;9.40;2.47;;;;;;;24.51;42.27;100610.38;5072627;28;20174;-60
2022/11/06 16:06:15;;;;;;;11.60;2.97;;;;;;;24.52;42.42;100601.63;5071206;28;20432;-60
2022/11/06 16:08:43;;;;;;;11.80;3.05;;;;;;;24.52;42.48;100609.50;5070634;28;20032;-61
2022/11/06 16:11:18;;;;;;;12.05;3.00;;;;;;;24.45;42.86;100602.50;5072187;28;20085;-60
2022/11/06 16:13:47;;;;;;;11.25;3.05;;;;;;;24.55;42.28;100612.16;5054347;28;20033;-58
2022/11/06 16:16:36;;;;;;;13.07;2.53;;;;;;;24.46;42.21;100604.25;5070995;28;20037;-61
2022/11/06 16:19:15;;;;;;;12.50;3.22;;;;;;;24.52;42.48;100607.78;5072113;28;20028;-59
2022/11/06 16:21:50;;;;;;;11.45;2.47;;;;;;;24.50;42.35;100611.25;5078209;28;20036;-60
2022/11/06 16:24:19;;;;;;;9.88;2.92;;;;;;;24.45;42.64;100616.47;5061784;28;20024;-60
2022/11/06 16:26:51;;;;;;;16.10;3.22;;;;;;;24.41;42.49;100607.72;5080025;28;20335;-60
2022/11/06 16:29:28;;;;;;;13.38;3.88;;;;;;;24.47;42.51;100612.09;5076147;28;20024;-61
2022/11/06 16:32:00;;;;;;;13.27;3.40;;;;;;;24.48;42.43;100607.75;5079109;28;20016;-61
2022/11/06 16:34:33;;;;;;;12.98;3.47;;;;;;;24.48;42.47;100620.88;5075364;28;20024;-59
2022/11/06 16:37:11;;;;;;;11.02;2.83;;;;;;;24.40;42.19;100619.06;5076463;28;20115;-62
2022/11/06 16:39:58;;;;;;;11.57;3.78;;;;;;;24.41;42.53;100612.06;5079139;28;20074;-61
2022/11/06 16:42:29;;;;;;;11.88;2.85;;;;;;;24.43;42.30;100615.56;5082719;28;20020;-61
2022/11/06 16:45:17;;;;;;;9.35;3.33;;;;;;;24.39;42.11;100608.59;5081683;28;20127;-61
2022/11/06 16:48:05;;;;;;;10.52;2.90;;;;;;;24.43;42.27;100619.09;5082109;28;20024;-61
2022/11/06 16:50:53;;;;;;;14.98;2.78;;;;;;;24.42;42.35;100624.31;5078196;28;20549;-62
2022/11/06 16:53:22;;;;;;;13.43;3.70;;;;;;;24.39;42.46;100624.31;5083556;28;20055;-62
2022/11/06 16:56:10;;;;;;;14.55;4.32;;;;;;;24.43;42.56;100637.44;5080239;28;20099;-61
2022/11/06 16:58:52;;;;;;;12.90;2.95;;;;;;;24.52;42.03;100633.09;5085527;28;20050;-60
2022/11/06 17:01:20;;;;;;;10.65;3.05;;;;;;;24.50;42.46;100622.63;5079979;28;20078;-59
2022/11/06 17:03:55;;;;;;;13.25;3.38;;;;;;;24.56;41.94;100630.53;5084682;28;20048;-57
2022/11/06 17:06:34;;;;;;;11.57;3.25;;;;;;;24.55;41.89;100627.88;5082495;28;20105;-60
2022/11/06 17:09:05;;;;;;;9.52;2.83;;;;;;;24.62;42.05;100636.66;5085822;28;20031;-60
2022/11/06 17:11:34;;;;;;;10.98;3.10;;;;;;;24.60;41.76;100641.00;5081476;28;20112;-59
2022/11/06 17:14:11;;;;;;;12.43;3.83;;;;;;;24.63;41.59;100635.78;5081270;28;20108;-60
2022/11/06 17:16:48;;;;;;;14.65;5.15;;;;;;;24.67;41.84;100637.56;5077660;28;20028;-60
2022/11/06 17:19:17;;;;;;;20.27;6.72;;;;;;;24.63;41.53;100633.16;5077968;28;20030;-59
2022/11/06 17:21:46;;;;;;;14.00;5.90;;;;;;;24.71;41.60;100640.25;5082919;28;20060;-60
2022/11/06 17:24:15;;;;;;;24.55;6.45;;;;;;;24.66;41.74;100636.66;5084920;28;20433;-60
2022/11/06 17:26:54;;;;;;;18.20;5.50;;;;;;;24.71;41.51;100642.00;5081078;28;20031;-60
2022/11/06 17:29:22;;;;;;;14.60;5.78;;;;;;;24.69;41.60;100651.56;5083210;28;20044;-60
2022/11/06 17:31:51;;;;;;;18.67;5.28;;;;;;;24.68;41.98;100645.44;5080886;28;20020;-57
2022/11/06 17:34:19;;;;;;;14.00;4.93;;;;;;;24.67;41.87;100648.91;5082750;28;20515;-60
2022/11/06 17:36:48;;;;;;;16.27;5.00;;;;;;;24.65;41.71;100645.44;5084627;28;20370;-60
2022/11/06 17:39:18;;;;;;;15.82;4.75;;;;;;;24.71;41.69;100649.88;5081202;28;20066;-60
2022/11/06 17:41:46;;;;;;;13.98;5.03;;;;;;;24.68;41.86;100647.19;5082201;28;20028;-60
2022/11/06 17:44:15;;;;;;;11.48;4.78;;;;;;;24.74;41.67;100657.72;5084512;28;20081;-52
2022/11/06 17:46:45;;;;;;;19.83;3.83;;;;;;;24.71;41.65;100655.97;5081653;28;20381;-60
2022/11/06 17:49:15;;;;;;;20.23;4.65;;;;;;;24.69;41.82;100657.69;5077203;28;20033;-60
2022/11/06 17:51:52;;;;;;;11.68;3.88;;;;;;;24.69;41.95;100649.81;5076745;28;20032;-60
2022/11/06 17:54:24;;;;;;;15.40;4.53;;;;;;;24.69;41.96;100652.44;5081915;28;20040;-60
2022/11/06 17:56:55;;;;;;;13.85;3.53;;;;;;;24.67;41.87;100666.41;5084331;28;20141;-56
2022/11/06 17:59:24;;;;;;;11.32;3.53;;;;;;;24.65;42.06;100663.81;5082038;28;20028;-60
2022/11/06 18:01:53;;;;;;;14.48;3.58;;;;;;;24.67;41.93;100666.41;5084097;28;20056;-60
2022/11/06 18:04:23;;;;;;;12.15;3.70;;;;;;;24.73;41.80;100659.50;5081807;28;20116;-60
2022/11/06 18:06:52;;;;;;;11.48;3.38;;;;;;;24.70;41.70;100672.59;5084587;28;20032;-60
2022/11/06 18:09:22;;;;;;;10.20;2.88;;;;;;;24.66;42.32;100665.53;5080530;28;20032;-60
2022/11/06 18:11:51;;;;;;;9.00;2.90;;;;;;;24.72;42.08;100664.75;5080208;28;20401;-60
2022/11/06 18:14:21;;;;;;;12.57;3.10;;;;;;;24.77;41.94;100681.34;5084440;28;20059;-55
2022/11/06 18:16:49;;;;;;;11.15;3.20;;;;;;;24.83;41.58;100672.63;5081265;28;20031;-60
2022/11/06 18:19:21;;;;;;;11.98;3.33;;;;;;;24.80;41.83;100683.13;5076635;28;20028;-60
2022/11/06 18:21:49;;;;;;;10.25;3.30;;;;;;;24.78;42.16;100674.38;5081211;28;20039;-60
2022/11/06 18:24:18;;;;;;;12.00;3.38;;;;;;;24.77;41.67;100675.25;5080989;28;20032;-60
2022/11/06 18:26:46;;;;;;;9.00;3.33;;;;;;;24.73;42.10;100671.75;5072443;28;20028;-60
2022/11/06 18:29:16;;;;;;;8.30;3.00;;;;;;;24.76;41.79;100674.34;5071476;28;20426;-60
2022/11/06 18:31:44;;;;;;;10.60;3.35;;;;;;;24.75;41.89;100675.22;5073219;28;20032;-59
2022/11/06 18:34:14;;;;;;;10.18;3.22;;;;;;;24.75;42.02;100677.84;5073142;28;20028;-59
2022/11/06 18:36:42;;;;;;;7.05;2.60;;;;;;;24.77;42.26;100681.34;5073112;28;20032;-60
2022/11/06 18:39:11;;;;;;;10.35;2.65;;;;;;;24.80;42.10;100680.50;5072661;28;20074;-59
2022/11/06 18:41:40;;;;;;;9.27;3.17;;;;;;;24.77;42.03;100691.84;5073319;28;20103;-60
2022/11/06 18:44:09;;;;;;;11.55;2.97;;;;;;;24.82;41.85;100690.13;5073012;28;20021;-59
2022/11/06 18:46:38;;;;;;;9.07;2.60;;;;;;;24.85;41.56;100684.00;5072977;28;20039;-60
2022/11/06 18:49:05;;;;;;;9.93;2.80;;;;;;;24.95;41.94;100691.09;5072160;28;20115;-60
2022/11/06 18:51:34;;;;;;;6.28;2.20;;;;;;;24.93;41.78;100700.69;5072926;28;20385;-60
2022/11/06 18:54:04;;;;;;;4.88;1.85;;;;;;;24.89;41.85;100701.53;5073117;28;20056;-59
2022/11/06 18:56:34;;;;;;;11.18;4.63;;;;;;;24.89;41.94;100704.16;5073196;28;20082;-59
2022/11/06 18:59:04;;;;;;;11.45;4.25;;;;;;;24.93;41.92;100707.66;5071515;28;20029;-59
2022/11/06 19:01:33;;;;;;;8.75;3.50;;;;;;;24.99;42.10;100708.56;5072855;28;20031;-60
2022/11/06 19:04:02;;;;;;;8.77;3.30;;;;;;;24.95;42.01;100709.44;5072851;28;20489;-57
2022/11/06 19:06:31;;;;;;;11.20;4.20;;;;;;;24.96;41.87;100712.94;5071801;28;20029;-59
2022/11/06 19:08:59;;;;;;;7.25;3.13;;;;;;;25.00;41.91;100707.69;5071634;28;20079;-57
2022/11/06 19:11:28;;;;;;;10.50;3.17;;;;;;;24.99;41.84;100711.19;5072603;28;20067;-56
2022/11/06 19:13:57;;;;;;;10.15;4.13;;;;;;;25.01;41.80;100705.97;5072769;28;20024;-54
2022/11/06 19:16:25;;;;;;;12.82;3.80;;;;;;;24.97;42.07;100699.84;5071507;28;20025;-59
2022/11/06 19:18:54;;;;;;;8.73;3.03;;;;;;;25.03;41.90;100699.00;5072785;28;20107;-58
2022/11/06 19:21:23;;;;;;;9.18;3.53;;;;;;;25.04;42.21;100692.88;5071446;28;20077;-60
2022/11/06 19:23:52;;;;;;;11.65;4.20;;;;;;;25.09;41.87;100704.25;5054853;28;20082;-57
2022/11/06 19:26:21;;;;;;;11.75;3.92;;;;;;;25.08;41.87;100709.50;5071428;28;20017;-58
2022/11/06 19:28:51;;;;;;;19.10;4.78;;;;;;;25.09;41.86;100704.25;5054673;28;20032;-59
2022/11/06 19:31:27;;;;;;;19.17;5.63;;;;;;;25.07;41.82;100697.25;5072558;28;20135;-60
2022/11/06 19:33:56;;;;;;;25.67;6.50;;;;;;;25.11;41.87;100706.91;5072288;28;20064;-59
2022/11/06 19:36:25;;;;;;;19.10;6.13;;;;;;;25.16;42.23;100707.75;5072171;28;20090;-59
2022/11/06 19:38:56;;;;;;;22.83;6.22;;;;;;;25.22;41.88;100704.31;5071036;28;20063;-59
2022/11/06 19:41:24;;;;;;;23.27;7.30;;;;;;;25.26;41.91;100709.56;5071127;28;20063;-59
2022/11/06 19:43:53;;;;;;;27.40;6.93;;;;;;;25.28;41.99;100710.47;5071174;28;20115;-60
2022/11/06 19:46:22;;;;;;;29.40;7.38;;;;;;;25.30;42.01;100713.06;5071028;28;20029;-59
2022/11/06 19:48:50;;;;;;;23.92;7.03;;;;;;;25.34;42.08;100717.47;5070589;28;20102;-60
2022/11/06 19:51:19;;;;;;;25.55;6.97;;;;;;;25.37;41.95;100722.75;5072027;28;20489;-60
2022/11/06 19:53:51;;;;;;;22.50;7.43;;;;;;;25.39;41.82;100726.25;5072107;28;20032;-59
2022/11/06 19:56:20;;;;;;;19.73;6.28;;;;;;;25.36;42.06;100722.72;5071114;28;20103;-60
2022/11/06 19:58:49;;;;;;;18.83;5.85;;;;;;;25.37;41.88;100713.97;5072259;28;20028;-59
2022/11/06 20:01:17;;;;;;;19.20;5.35;;;;;;;25.40;42.04;100725.34;5072093;28;20111;-60
2022/11/06 20:03:46;;;;;;;23.25;5.78;;;;;;;25.40;41.80;100727.97;5072183;28;20047;-60
2022/11/06 20:06:15;;;;;;;23.55;6.70;;;;;;;25.46;42.03;100727.19;5072176;28;20024;-59
2022/11/06 20:08:46;;;;;;;16.70;5.07;;;;;;;25.47;41.96;100715.81;5072219;28;20134;-59
2022/11/06 20:11:15;;;;;;;16.98;4.93;;;;;;;25.58;41.56;100719.31;5073077;28;20104;-59
2022/11/06 20:13:45;;;;;;;19.40;5.45;;;;;;;25.45;41.68;100704.41;5076055;28;20025;-59
2022/11/06 20:16:15;;;;;;;15.00;4.70;;;;;;;25.53;41.70;100721.06;5058149;28;20462;-56
2022/11/06 20:18:45;;;;;;;23.52;6.20;;;;;;;25.58;41.66;100719.31;5075668;28;20052;-58
2022/11/06 20:21:13;;;;;;;19.23;5.18;;;;;;;25.59;41.40;100715.81;5076173;28;20036;-55
2022/11/06 20:23:42;;;;;;;12.70;4.50;;;;;;;25.59;41.51;100714.94;5074247;28;20035;-59
2022/11/06 20:26:10;;;;;;;14.20;4.45;;;;;;;25.54;41.44;100704.44;5075547;28;20060;-60
2022/11/06 20:28:39;;;;;;;15.93;4.55;;;;;;;25.58;41.78;100715.81;5075570;28;20029;-59
2022/11/06 20:31:12;;;;;;;16.23;5.25;;;;;;;25.51;41.72;100714.91;5074152;28;20101;-60
2022/11/06 20:33:42;;;;;;;13.90;4.20;;;;;;;25.58;41.51;100715.81;5075215;28;20024;-60
2022/11/06 20:36:23;;;;;;;12.68;3.97;;;;;;;25.60;41.40;100714.06;5075150;28;20035;-60
2022/11/06 20:38:52;;;;;;;10.07;3.78;;;;;;;25.61;41.36;100721.97;5073623;28;20048;-57
2022/11/06 20:41:20;;;;;;;10.13;3.20;;;;;;;25.48;41.29;100701.81;5075864;28;20617;-60
2022/11/06 20:43:49;;;;;;;9.40;3.17;;;;;;;25.54;41.43;100725.44;5095019;28;20028;-61
2022/11/06 20:46:18;;;;;;;15.18;4.63;;;;;;;25.53;41.18;100723.69;5094043;28;20067;-60
2022/11/06 20:48:45;;;;;;;13.88;3.83;;;;;;;25.57;41.22;100729.81;5095089;28;20028;-60
2022/11/06 20:51:20;;;;;;;12.80;3.58;;;;;;;25.53;41.20;100723.69;5094730;28;20048;-60
2022/11/06 20:53:49;;;;;;;8.95;3.17;;;;;;;25.58;40.98;100721.94;5095074;28;20481;-60
2022/11/06 20:56:19;;;;;;;13.27;3.20;;;;;;;25.53;41.13;100722.81;5095192;28;20040;-54
2022/11/06 20:58:48;;;;;;;9.90;3.33;;;;;;;25.57;40.93;100712.31;5095682;28;20028;-60
2022/11/06 21:01:19;;;;;;;11.15;3.40;;;;;;;25.59;41.09;100721.09;5095318;28;20111;-60
2022/11/06 21:03:48;;;;;;;10.75;2.80;;;;;;;25.57;40.94;100725.44;5094161;28;20024;-60
2022/11/06 21:06:17;;;;;;;10.10;2.95;;;;;;;25.56;40.98;100726.31;5095445;28;20468;-59
2022/11/06 21:08:46;;;;;;;9.40;3.03;;;;;;;25.61;40.91;100715.81;5095187;28;20027;-59
2022/11/06 21:11:17;;;;;;;11.43;3.08;;;;;;;25.59;40.66;100709.69;5094125;28;20064;-59
2022/11/06 21:13:46;;;;;;;9.07;2.80;;;;;;;25.65;40.61;100711.47;5095314;28;20492;-59
2022/11/06 21:16:17;;;;;;;9.50;2.78;;;;;;;25.62;40.70;100718.47;5095030;28;20036;-60
2022/11/06 21:18:46;;;;;;;8.85;2.75;;;;;;;25.62;40.75;100715.84;5095192;28;20111;-60
2022/11/06 21:21:17;;;;;;;10.63;3.08;;;;;;;25.65;40.76;100717.59;5093507;28;20028;-59
2022/11/06 21:33:53;;;;;;;10.32;3.05;;;;;;;25.57;40.90;100727.19;5092657;28;20594;-60
2022/11/06 21:36:28;;;;;;;9.13;3.17;;;;;;;25.56;40.87;100726.31;5093572;28;20515;-59
2022/11/06 21:38:58;;;;;;;9.95;2.85;;;;;;;25.62;40.59;100725.47;5094838;28;20028;-60
2022/11/06 21:41:47;;;;;;;10.82;2.72;;;;;;;25.63;40.46;100724.59;5094872;28;20023;-60
2022/11/06 21:44:16;;;;;;;10.65;3.92;;;;;;;25.65;40.49;100719.34;5093207;28;20031;-59
2022/11/06 21:46:45;;;;;;;8.82;2.75;;;;;;;25.53;40.85;100723.69;5094649;28;20054;-60
2022/11/06 21:49:14;;;;;;;9.18;3.20;;;;;;;25.54;40.94;100727.19;5093982;28;20028;-58
2022/11/06 21:51:42;;;;;;;10.77;2.95;;;;;;;25.57;40.75;100724.56;5094715;28;20111;-59
2022/11/06 21:56:59;;;;;;;8.45;2.80;;;;;;;25.62;40.55;100721.09;5094008;28;20464;-60
2022/11/06 22:00:03;;;;;;;9.27;2.85;;;;;;;25.55;40.32;100723.72;5094663;28;20032;-59
2022/11/06 22:02:31;;;;;;;12.20;3.10;;;;;;;25.53;40.33;100731.56;5094112;28;20036;-59
2022/11/06 22:05:00;;;;;;;10.20;3.00;;;;;;;25.56;40.67;100736.81;5094370;28;20538;-60
2022/11/06 22:07:30;;;;;;;6.38;2.22;;;;;;;25.55;40.21;100723.72;5094119;28;20032;-59
2022/11/06 22:09:58;;;;;;;13.07;3.30;;;;;;;25.55;40.26;100723.72;5076267;28;20165;-60
2022/11/06 22:12:27;;;;;;;10.13;3.28;;;;;;;25.48;40.36;100714.94;5093962;28;20028;-59
2022/11/06 22:14:56;;;;;;;8.00;2.47;;;;;;;25.52;40.27;100719.31;5093830;28;20036;-60
2022/11/06 22:17:24;;;;;;;8.90;2.60;;;;;;;25.52;40.32;100714.03;5094020;28;20020;-60
2022/11/06 22:19:53;;;;;;;7.78;2.42;;;;;;;25.55;40.48;100721.06;5094043;28;20381;-60
2022/11/06 22:22:22;;;;;;;7.35;2.13;;;;;;;25.53;40.27;100722.81;5093838;28;20110;-60
2022/11/06 22:24:51;;;;;;;9.63;2.50;;;;;;;25.43;40.52;100714.91;5093517;28;20036;-58
2022/11/06 22:27:19;;;;;;;8.90;2.72;;;;;;;25.42;40.27;100723.66;5093850;28;20152;-60
2022/11/06 22:29:48;;;;;;;9.60;2.83;;;;;;;25.46;40.31;100714.91;5093738;28;20028;-60
2022/11/06 22:32:18;;;;;;;9.35;2.72;;;;;;;25.44;40.16;100721.03;5092673;28;20026;-60
2022/11/06 22:34:46;;;;;;;14.00;3.75;;;;;;;25.50;40.09;100725.44;5092845;28;20020;-61
2022/11/06 22:37:15;;;;;;;10.30;3.00;;;;;;;25.41;40.39;100728.88;5093144;28;20032;-60
2022/11/06 22:39:43;;;;;;;10.90;3.30;;;;;;;25.38;40.17;100727.13;5092256;28;20099;-60
2022/11/06 22:42:12;;;;;;;9.90;2.83;;;;;;;25.46;40.34;100721.94;5092182;28;20032;-60
2022/11/06 22:44:41;;;;;;;8.77;2.72;;;;;;;25.39;40.45;100718.38;5093465;28;20016;-60
2022/11/06 22:47:09;;;;;;;10.05;2.30;;;;;;;25.40;40.43;100716.63;5093481;28;20054;-60
2022/11/06 22:49:38;;;;;;;10.10;2.38;;;;;;;25.41;40.27;100721.00;5093023;28;20044;-60
2022/11/06 22:52:06;;;;;;;10.27;2.67;;;;;;;25.40;39.99;100714.84;5093478;28;20024;-61
2022/11/06 22:54:35;;;;;;;8.30;2.50;;;;;;;25.31;40.15;100706.97;5093124;28;20031;-60
2022/11/06 22:57:04;;;;;;;10.02;2.85;;;;;;;25.42;40.00;100712.28;5093305;28;20511;-60
2022/11/06 22:59:32;;;;;;;9.35;2.90;;;;;;;25.25;40.22;100694.69;5091875;28;20052;-59
